sensor_id;sensor_type;location;lat;lon;timestamp;temperature;humidity
9668;DHT22;4872;48.316;10.650;2022-10-16T04:11:49;13.30;99.90
9668;DHT22;4872;48.316;10.650;2022-10-16T04:14:16;13.30;99.90
9668;DHT22;4872;48.316;10.650;2022-10-16T04:16:43;13.30;99.90
9668;DHT22;4872;48.316;10.650;2022-10-16T04:19:09;13.30;99.90
9668;DHT22;4872;48.316;10.650;2022-10-16T04:21:36;13.30;99.90
9668;DHT22;4872;48.316;10.650;2022-10-16T04:24:03;13.30;99.90
9668;DHT22;4872;48.316;10.650;2022-10-16T04:26:31;13.30;99.90
9668;DHT22;4872;48.316;10.650;2022-10-16T04:28:59;13.30;99.90
9668;DHT22;4872;48.316;10.650;2022-10-16T04:31:26;13.40;99.90
9668;DHT22;4872;48.316;10.650;2022-10-16T04:33:53;13.30;99.90
9668;DHT22;4872;48.316;10.650;2022-10-16T04:36:19;13.30;99.90
9668;DHT22;4872;48.316;10.650;2022-10-16T04:38:46;13.30;99.90
9668;DHT22;4872;48.316;10.650;2022-10-16T04:41:13;13.30;99.90
9668;DHT22;4872;48.316;10.650;2022-10-16T04:43:40;13.30;99.90
9668;DHT22;4872;48.316;10.650;2022-10-16T04:46:08;13.20;99.90
9668;DHT22;4872;48.316;10.650;2022-10-16T04:48:35;13.20;99.90
9668;DHT22;4872;48.316;10.650;2022-10-16T04:51:02;13.20;99.90
9668;DHT22;4872;48.316;10.650;2022-10-16T04:53:29;13.20;99.90
9668;DHT22;4872;48.316;10.650;2022-10-16T04:55:56;13.10;99.90
9668;DHT22;4872;48.316;10.650;2022-10-16T04:58:23;13.20;99.90
9668;DHT22;4872;48.316;10.650;2022-10-16T05:00:50;13.30;99.90
9668;DHT22;4872;48.316;10.650;2022-10-16T05:03:18;13.20;99.90
9668;DHT22;4872;48.316;10.650;2022-10-16T05:05:45;13.10;99.90
9668;DHT22;4872;48.316;10.650;2022-10-16T05:08:13;13.10;99.90
9668;DHT22;4872;48.316;10.650;2022-10-16T05:10:41;13.10;99.90
9668;DHT22;4872;48.316;10.650;2022-10-16T05:13:09;13.00;99.90
9668;DHT22;4872;48.316;10.650;2022-10-16T05:15:36;13.10;99.90
9668;DHT22;4872;48.316;10.650;2022-10-16T05:18:03;13.00;99.90
9668;DHT22;4872;48.316;10.650;2022-10-16T05:20:31;12.90;99.90
9668;DHT22;4872;48.316;10.650;2022-10-16T05:22:58;12.90;99.90
9668;DHT22;4872;48.316;10.650;2022-10-16T05:25:24;12.90;99.90
9668;DHT22;4872;48.316;10.650;2022-10-16T05:27:51;13.10;99.90
9668;DHT22;4872;48.316;10.650;2022-10-16T05:30:18;13.00;99.90
9668;DHT22;4872;48.316;10.650;2022-10-16T05:32:46;12.90;99.90
9668;DHT22;4872;48.316;10.650;2022-10-16T05:35:14;13.00;99.90
9668;DHT22;4872;48.316;10.650;2022-10-16T05:37:42;12.80;99.90
9668;DHT22;4872;48.316;10.650;2022-10-16T05:40:10;12.90;99.90
9668;DHT22;4872;48.316;10.650;2022-10-16T05:42:37;13.00;99.90
9668;DHT22;4872;48.316;10.650;2022-10-16T05:45:05;12.90;99.90
9668;DHT22;4872;48.316;10.650;2022-10-16T05:47:32;12.90;99.90
9668;DHT22;4872;48.316;10.650;2022-10-16T05:49:59;12.90;99.90
9668;DHT22;4872;48.316;10.650;2022-10-16T05:52:27;12.90;99.90
9668;DHT22;4872;48.316;10.650;2022-10-16T05:54:55;12.90;99.90
9668;DHT22;4872;48.316;10.650;2022-10-16T05:57:21;12.70;99.90
9668;DHT22;4872;48.316;10.650;2022-10-16T05:59:48;12.80;99.90
9668;DHT22;4872;48.316;10.650;2022-10-16T06:02:15;12.80;99.90
9668;DHT22;4872;48.316;10.650;2022-10-16T06:04:42;12.80;99.90
9668;DHT22;4872;48.316;10.650;2022-10-16T06:07:09;12.80;99.90
9668;DHT22;4872;48.316;10.650;2022-10-16T06:09:36;13.00;99.90
9668;DHT22;4872;48.316;10.650;2022-10-16T06:12:04;12.90;99.90
9668;DHT22;4872;48.316;10.650;2022-10-16T06:14:31;12.90;99.90
9668;DHT22;4872;48.316;10.650;2022-10-16T06:16:58;12.90;99.90
9668;DHT22;4872;48.316;10.650;2022-10-16T06:19:24;12.90;99.90
9668;DHT22;4872;48.316;10.650;2022-10-16T06:21:51;13.00;99.90
9668;DHT22;4872;48.316;10.650;2022-10-16T06:24:18;13.10;99.90
9668;DHT22;4872;48.316;10.650;2022-10-16T06:26:45;13.10;99.90
9668;DHT22;4872;48.316;10.650;2022-10-16T06:29:13;13.20;99.90
9668;DHT22;4872;48.316;10.650;2022-10-16T06:31:40;13.20;99.90
9668;DHT22;4872;48.316;10.650;2022-10-16T06:34:08;13.30;99.90
9668;DHT22;4872;48.316;10.650;2022-10-16T06:36:37;13.40;99.90
9668;DHT22;4872;48.316;10.650;2022-10-16T06:39:04;13.50;99.90
9668;DHT22;4872;48.316;10.650;2022-10-16T06:41:33;13.60;99.90
9668;DHT22;4872;48.316;10.650;2022-10-16T06:44:00;13.70;99.90
9668;DHT22;4872;48.316;10.650;2022-10-16T06:46:28;13.80;99.90
9668;DHT22;4872;48.316;10.650;2022-10-16T06:48:55;14.00;99.90
9668;DHT22;4872;48.316;10.650;2022-10-16T06:51:23;13.80;99.90
9668;DHT22;4872;48.316;10.650;2022-10-16T06:53:52;14.00;99.90
9668;DHT22;4872;48.316;10.650;2022-10-16T06:56:21;14.10;99.90
9668;DHT22;4872;48.316;10.650;2022-10-16T06:58:49;14.20;99.90
9668;DHT22;4872;48.316;10.650;2022-10-16T07:01:18;14.20;99.90
9668;DHT22;4872;48.316;10.650;2022-10-16T07:03:47;14.40;99.90
9668;DHT22;4872;48.316;10.650;2022-10-16T07:06:15;14.50;99.90
9668;DHT22;4872;48.316;10.650;2022-10-16T07:08:44;14.60;99.90
9668;DHT22;4872;48.316;10.650;2022-10-16T07:11:13;14.70;99.90
9668;DHT22;4872;48.316;10.650;2022-10-16T07:13:41;15.00;99.90
9668;DHT22;4872;48.316;10.650;2022-10-16T07:16:11;15.10;99.90
9668;DHT22;4872;48.316;10.650;2022-10-16T07:18:38;15.30;99.90
9668;DHT22;4872;48.316;10.650;2022-10-16T07:21:08;15.30;99.90
9668;DHT22;4872;48.316;10.650;2022-10-16T07:23:35;15.40;99.90
9668;DHT22;4872;48.316;10.650;2022-10-16T07:26:02;15.40;99.90
9668;DHT22;4872;48.316;10.650;2022-10-16T07:28:29;15.40;99.90
9668;DHT22;4872;48.316;10.650;2022-10-16T07:31:00;15.50;99.90
9668;DHT22;4872;48.316;10.650;2022-10-16T07:33:27;15.40;99.90
9668;DHT22;4872;48.316;10.650;2022-10-16T07:35:54;15.40;99.90
9668;DHT22;4872;48.316;10.650;2022-10-16T07:38:23;15.50;99.90
9668;DHT22;4872;48.316;10.650;2022-10-16T07:40:56;15.50;99.90
9668;DHT22;4872;48.316;10.650;2022-10-16T07:43:23;15.60;99.90
9668;DHT22;4872;48.316;10.650;2022-10-16T07:45:50;15.70;99.90
9668;DHT22;4872;48.316;10.650;2022-10-16T07:48:18;15.90;99.90
9668;DHT22;4872;48.316;10.650;2022-10-16T07:50:45;16.00;99.90
9668;DHT22;4872;48.316;10.650;2022-10-16T07:53:12;16.10;99.90
9668;DHT22;4872;48.316;10.650;2022-10-16T07:55:40;16.10;99.90
9668;DHT22;4872;48.316;10.650;2022-10-16T07:58:07;16.30;99.90
9668;DHT22;4872;48.316;10.650;2022-10-16T08:00:36;16.40;99.90
9668;DHT22;4872;48.316;10.650;2022-10-16T08:03:03;16.40;99.90
9668;DHT22;4872;48.316;10.650;2022-10-16T08:05:31;16.60;99.90
9668;DHT22;4872;48.316;10.650;2022-10-16T08:07:59;16.80;99.90
9668;DHT22;4872;48.316;10.650;2022-10-16T08:10:26;16.80;99.90
9668;DHT22;4872;48.316;10.650;2022-10-16T08:12:55;17.00;99.90
9668;DHT22;4872;48.316;10.650;2022-10-16T08:15:22;17.20;99.90
9668;DHT22;4872;48.316;10.650;2022-10-16T08:17:56;17.40;99.90
9668;DHT22;4872;48.316;10.650;2022-10-16T08:20:23;17.60;99.90
9668;DHT22;4872;48.316;10.650;2022-10-16T08:22:50;17.70;99.90
9668;DHT22;4872;48.316;10.650;2022-10-16T08:25:17;17.90;99.90
9668;DHT22;4872;48.316;10.650;2022-10-16T08:27:44;18.10;99.90
9668;DHT22;4872;48.316;10.650;2022-10-16T08:30:13;18.30;99.90
9668;DHT22;4872;48.316;10.650;2022-10-16T08:32:40;18.50;99.90
9668;DHT22;4872;48.316;10.650;2022-10-16T08:35:08;18.70;99.90
9668;DHT22;4872;48.316;10.650;2022-10-16T08:37:36;18.80;99.90
9668;DHT22;4872;48.316;10.650;2022-10-16T08:40:04;19.00;99.90
9668;DHT22;4872;48.316;10.650;2022-10-16T08:42:45;19.10;99.90
9668;DHT22;4872;48.316;10.650;2022-10-16T08:45:32;19.30;99.90
9668;DHT22;4872;48.316;10.650;2022-10-16T08:48:08;19.40;99.90
9668;DHT22;4872;48.316;10.650;2022-10-16T08:50:39;19.50;99.90
9668;DHT22;4872;48.316;10.650;2022-10-16T08:53:09;19.50;99.90
9668;DHT22;4872;48.316;10.650;2022-10-16T08:55:41;19.60;99.90
9668;DHT22;4872;48.316;10.650;2022-10-16T08:58:12;19.60;99.90
9668;DHT22;4872;48.316;10.650;2022-10-16T09:00:42;19.50;99.90
9668;DHT22;4872;48.316;10.650;2022-10-16T09:03:16;19.60;99.90
9668;DHT22;4872;48.316;10.650;2022-10-16T09:06:07;19.60;99.90
9668;DHT22;4872;48.316;10.650;2022-10-16T09:08:45;19.60;99.90
9668;DHT22;4872;48.316;10.650;2022-10-16T09:11:18;19.60;99.90
9668;DHT22;4872;48.316;10.650;2022-10-16T09:13:51;19.80;99.90
9668;DHT22;4872;48.316;10.650;2022-10-16T09:16:24;19.90;99.90
9668;DHT22;4872;48.316;10.650;2022-10-16T09:18:58;20.00;99.90
9668;DHT22;4872;48.316;10.650;2022-10-16T09:21:29;20.10;99.90
9668;DHT22;4872;48.316;10.650;2022-10-16T09:23:59;20.20;99.90
9668;DHT22;4872;48.316;10.650;2022-10-16T09:26:30;20.20;99.90
9668;DHT22;4872;48.316;10.650;2022-10-16T09:28:57;20.20;99.90
9668;DHT22;4872;48.316;10.650;2022-10-16T09:31:25;20.20;99.90
9668;DHT22;4872;48.316;10.650;2022-10-16T09:33:54;20.20;99.90
9668;DHT22;4872;48.316;10.650;2022-10-16T09:36:23;20.30;99.90
9668;DHT22;4872;48.316;10.650;2022-10-16T09:39:02;20.30;99.90
9668;DHT22;4872;48.316;10.650;2022-10-16T09:41:29;20.30;99.90
9668;DHT22;4872;48.316;10.650;2022-10-16T09:43:57;20.40;99.90
9668;DHT22;4872;48.316;10.650;2022-10-16T09:46:28;20.40;99.90
9668;DHT22;4872;48.316;10.650;2022-10-16T09:48:57;20.40;99.90
9668;DHT22;4872;48.316;10.650;2022-10-16T09:51:26;20.50;99.90
9668;DHT22;4872;48.316;10.650;2022-10-16T09:53:58;20.50;99.90
9668;DHT22;4872;48.316;10.650;2022-10-16T09:56:27;20.40;99.90
9668;DHT22;4872;48.316;10.650;2022-10-16T09:58:55;20.40;99.90
9668;DHT22;4872;48.316;10.650;2022-10-16T10:01:26;20.50;99.90
9668;DHT22;4872;48.316;10.650;2022-10-16T10:03:57;20.50;99.90
9668;DHT22;4872;48.316;10.650;2022-10-16T10:06:28;20.50;99.90
9668;DHT22;4872;48.316;10.650;2022-10-16T10:08:58;20.50;99.90
9668;DHT22;4872;48.316;10.650;2022-10-16T10:11:56;20.60;99.90
9668;DHT22;4872;48.316;10.650;2022-10-16T10:14:30;20.60;99.90
9668;DHT22;4872;48.316;10.650;2022-10-16T10:17:09;20.60;99.90
9668;DHT22;4872;48.316;10.650;2022-10-16T10:19:44;20.60;99.90
9668;DHT22;4872;48.316;10.650;2022-10-16T10:22:31;20.70;99.90
9668;DHT22;4872;48.316;10.650;2022-10-16T10:25:15;20.60;99.90
9668;DHT22;4872;48.316;10.650;2022-10-16T10:30:51;20.70;99.90
9668;DHT22;4872;48.316;10.650;2022-10-16T10:33:28;20.70;99.90
9668;DHT22;4872;48.316;10.650;2022-10-16T10:36:05;20.80;99.40
9668;DHT22;4872;48.316;10.650;2022-10-16T10:38:41;20.80;99.80
9668;DHT22;4872;48.316;10.650;2022-10-16T10:41:33;20.90;99.90
9668;DHT22;4872;48.316;10.650;2022-10-16T10:44:11;20.90;99.90
9668;DHT22;4872;48.316;10.650;2022-10-16T10:46:49;20.90;99.90
9668;DHT22;4872;48.316;10.650;2022-10-16T10:49:36;21.00;99.90
9668;DHT22;4872;48.316;10.650;2022-10-16T10:52:16;21.00;99.90
9668;DHT22;4872;48.316;10.650;2022-10-16T10:54:51;21.00;99.90
9668;DHT22;4872;48.316;10.650;2022-10-16T10:57:29;21.00;99.90
9668;DHT22;4872;48.316;10.650;2022-10-16T11:00:07;21.00;99.90
9668;DHT22;4872;48.316;10.650;2022-10-16T11:02:44;21.10;99.90
9668;DHT22;4872;48.316;10.650;2022-10-16T11:05:38;21.10;99.90
9668;DHT22;4872;48.316;10.650;2022-10-16T11:08:13;21.20;99.90
9668;DHT22;4872;48.316;10.650;2022-10-16T11:10:46;21.20;99.70
9668;DHT22;4872;48.316;10.650;2022-10-16T11:13:24;21.20;99.70
9668;DHT22;4872;48.316;10.650;2022-10-16T11:15:55;21.30;99.60
9668;DHT22;4872;48.316;10.650;2022-10-16T11:18:27;21.40;99.40
9668;DHT22;4872;48.316;10.650;2022-10-16T11:20:59;21.30;99.60
9668;DHT22;4872;48.316;10.650;2022-10-16T11:23:31;21.40;99.40
9668;DHT22;4872;48.316;10.650;2022-10-16T11:26:03;21.30;99.30
9668;DHT22;4872;48.316;10.650;2022-10-16T11:28:34;21.30;99.20
9668;DHT22;4872;48.316;10.650;2022-10-16T11:31:08;21.30;99.70
9668;DHT22;4872;48.316;10.650;2022-10-16T11:33:40;21.30;98.90
9668;DHT22;4872;48.316;10.650;2022-10-16T11:36:12;21.40;99.60
9668;DHT22;4872;48.316;10.650;2022-10-16T11:38:45;21.50;99.00
9668;DHT22;4872;48.316;10.650;2022-10-16T11:41:23;21.50;99.00
9668;DHT22;4872;48.316;10.650;2022-10-16T11:44:04;21.60;99.60
9668;DHT22;4872;48.316;10.650;2022-10-16T11:46:34;21.80;99.30
9668;DHT22;4872;48.316;10.650;2022-10-16T11:49:09;21.90;99.20
9668;DHT22;4872;48.316;10.650;2022-10-16T11:51:40;22.00;98.30
9668;DHT22;4872;48.316;10.650;2022-10-16T11:54:17;22.20;97.30
9668;DHT22;4872;48.316;10.650;2022-10-16T11:56:50;22.30;97.30
9668;DHT22;4872;48.316;10.650;2022-10-16T11:59:24;22.50;97.10
9668;DHT22;4872;48.316;10.650;2022-10-16T12:02:15;22.70;97.80
9668;DHT22;4872;48.316;10.650;2022-10-16T12:04:48;23.00;97.40
9668;DHT22;4872;48.316;10.650;2022-10-16T12:07:19;23.20;97.60
9668;DHT22;4872;48.316;10.650;2022-10-16T12:09:50;23.30;96.60
9668;DHT22;4872;48.316;10.650;2022-10-16T12:12:25;23.30;96.10
9668;DHT22;4872;48.316;10.650;2022-10-16T12:15:00;23.30;95.00
9668;DHT22;4872;48.316;10.650;2022-10-16T12:17:34;23.30;94.00
9668;DHT22;4872;48.316;10.650;2022-10-16T12:20:19;23.40;94.40
9668;DHT22;4872;48.316;10.650;2022-10-16T12:22:49;23.50;93.90
9668;DHT22;4872;48.316;10.650;2022-10-16T12:25:23;23.40;93.50
9668;DHT22;4872;48.316;10.650;2022-10-16T12:27:55;23.50;94.10
9668;DHT22;4872;48.316;10.650;2022-10-16T12:30:25;23.70;93.80
9668;DHT22;4872;48.316;10.650;2022-10-16T12:32:53;23.90;93.40
9668;DHT22;4872;48.316;10.650;2022-10-16T12:35:24;24.10;92.90
9668;DHT22;4872;48.316;10.650;2022-10-16T12:37:52;24.30;92.60
9668;DHT22;4872;48.316;10.650;2022-10-16T12:40:30;24.60;92.90
9668;DHT22;4872;48.316;10.650;2022-10-16T12:42:58;24.90;92.50
9668;DHT22;4872;48.316;10.650;2022-10-16T12:45:28;25.10;91.10
9668;DHT22;4872;48.316;10.650;2022-10-16T12:47:57;25.20;91.60
9668;DHT22;4872;48.316;10.650;2022-10-16T12:50:31;25.20;90.90
9668;DHT22;4872;48.316;10.650;2022-10-16T12:52:58;25.50;91.00
9668;DHT22;4872;48.316;10.650;2022-10-16T12:55:26;25.70;90.30
9668;DHT22;4872;48.316;10.650;2022-10-16T12:58:16;26.00;90.20
9668;DHT22;4872;48.316;10.650;2022-10-16T13:00:53;26.20;90.70
9668;DHT22;4872;48.316;10.650;2022-10-16T13:06:28;26.60;83.60
9668;DHT22;4872;48.316;10.650;2022-10-16T13:09:07;26.70;84.60
9668;DHT22;4872;48.316;10.650;2022-10-16T13:11:55;26.90;82.80
9668;DHT22;4872;48.316;10.650;2022-10-16T13:14:37;26.60;83.20
9668;DHT22;4872;48.316;10.650;2022-10-16T13:17:13;26.80;85.00
9668;DHT22;4872;48.316;10.650;2022-10-16T13:19:45;26.90;82.10
9668;DHT22;4872;48.316;10.650;2022-10-16T13:22:19;26.90;79.30
9668;DHT22;4872;48.316;10.650;2022-10-16T13:24:53;26.70;77.80
9668;DHT22;4872;48.316;10.650;2022-10-16T13:27:31;26.50;79.90
9668;DHT22;4872;48.316;10.650;2022-10-16T13:30:11;26.60;81.30
9668;DHT22;4872;48.316;10.650;2022-10-16T13:32:39;26.40;78.40
9668;DHT22;4872;48.316;10.650;2022-10-16T13:35:19;26.50;80.70
9668;DHT22;4872;48.316;10.650;2022-10-16T13:37:45;26.50;79.90
9668;DHT22;4872;48.316;10.650;2022-10-16T13:40:19;26.60;77.20
9668;DHT22;4872;48.316;10.650;2022-10-16T13:42:46;26.90;79.30
9668;DHT22;4872;48.316;10.650;2022-10-16T13:45:22;27.20;78.60
9668;DHT22;4872;48.316;10.650;2022-10-16T13:48:00;27.50;75.00
9668;DHT22;4872;48.316;10.650;2022-10-16T13:50:27;27.40;75.30
9668;DHT22;4872;48.316;10.650;2022-10-16T13:53:03;27.60;75.70
9668;DHT22;4872;48.316;10.650;2022-10-16T13:55:31;27.60;73.80
9668;DHT22;4872;48.316;10.650;2022-10-16T13:58:05;27.00;74.30
9668;DHT22;4872;48.316;10.650;2022-10-16T14:00:33;27.40;73.90
9668;DHT22;4872;48.316;10.650;2022-10-16T14:03:03;27.50;73.20
9668;DHT22;4872;48.316;10.650;2022-10-16T14:05:30;27.30;73.80
9668;DHT22;4872;48.316;10.650;2022-10-16T14:07:58;27.40;73.20
9668;DHT22;4872;48.316;10.650;2022-10-16T14:10:27;27.40;72.10
9668;DHT22;4872;48.316;10.650;2022-10-16T14:12:59;27.40;71.80
9668;DHT22;4872;48.316;10.650;2022-10-16T14:15:27;27.20;72.10
9668;DHT22;4872;48.316;10.650;2022-10-16T14:17:58;27.10;72.70
9668;DHT22;4872;48.316;10.650;2022-10-16T14:20:27;27.10;73.00
9668;DHT22;4872;48.316;10.650;2022-10-16T14:22:59;27.10;73.20
9668;DHT22;4872;48.316;10.650;2022-10-16T14:25:28;27.00;73.30
9668;DHT22;4872;48.316;10.650;2022-10-16T14:28:00;26.90;73.50
9668;DHT22;4872;48.316;10.650;2022-10-16T14:30:28;26.90;74.80
9668;DHT22;4872;48.316;10.650;2022-10-16T14:32:58;26.80;75.70
9668;DHT22;4872;48.316;10.650;2022-10-16T14:35:27;26.80;75.20
9668;DHT22;4872;48.316;10.650;2022-10-16T14:37:56;26.70;76.40
9668;DHT22;4872;48.316;10.650;2022-10-16T14:40:24;26.70;79.20
9668;DHT22;4872;48.316;10.650;2022-10-16T14:42:52;26.80;79.10
9668;DHT22;4872;48.316;10.650;2022-10-16T14:45:23;27.00;77.90
9668;DHT22;4872;48.316;10.650;2022-10-16T14:47:54;27.30;76.30
9668;DHT22;4872;48.316;10.650;2022-10-16T14:50:29;27.40;75.80
9668;DHT22;4872;48.316;10.650;2022-10-16T14:52:58;27.50;77.10
9668;DHT22;4872;48.316;10.650;2022-10-16T14:55:28;27.70;77.80
9668;DHT22;4872;48.316;10.650;2022-10-16T14:57:55;27.90;76.10
9668;DHT22;4872;48.316;10.650;2022-10-16T15:00:23;27.90;76.70
9668;DHT22;4872;48.316;10.650;2022-10-16T15:02:51;27.60;76.60
9668;DHT22;4872;48.316;10.650;2022-10-16T15:05:19;27.40;77.30
9668;DHT22;4872;48.316;10.650;2022-10-16T15:07:49;27.10;78.20
9668;DHT22;4872;48.316;10.650;2022-10-16T15:10:16;26.80;78.40
9668;DHT22;4872;48.316;10.650;2022-10-16T15:12:44;26.50;81.00
9668;DHT22;4872;48.316;10.650;2022-10-16T15:15:36;26.20;83.20
9668;DHT22;4872;48.316;10.650;2022-10-16T15:18:04;25.90;85.80
9668;DHT22;4872;48.316;10.650;2022-10-16T15:20:32;25.70;87.10
9668;DHT22;4872;48.316;10.650;2022-10-16T15:23:02;25.50;88.00
9668;DHT22;4872;48.316;10.650;2022-10-16T15:25:35;25.40;88.20
9668;DHT22;4872;48.316;10.650;2022-10-16T15:28:04;25.20;88.60
9668;DHT22;4872;48.316;10.650;2022-10-16T15:30:31;25.10;89.20
9668;DHT22;4872;48.316;10.650;2022-10-16T15:32:58;24.90;89.00
9668;DHT22;4872;48.316;10.650;2022-10-16T15:35:25;24.60;88.60
9668;DHT22;4872;48.316;10.650;2022-10-16T15:37:51;24.40;88.70
9668;DHT22;4872;48.316;10.650;2022-10-16T15:40:20;24.10;89.70
9668;DHT22;4872;48.316;10.650;2022-10-16T15:42:48;23.80;90.30
9668;DHT22;4872;48.316;10.650;2022-10-16T15:45:15;23.50;91.10
9668;DHT22;4872;48.316;10.650;2022-10-16T15:47:43;23.30;91.70
9668;DHT22;4872;48.316;10.650;2022-10-16T15:50:10;23.00;92.00
9668;DHT22;4872;48.316;10.650;2022-10-16T15:52:38;22.70;93.40
9668;DHT22;4872;48.316;10.650;2022-10-16T15:55:06;22.50;93.50
9668;DHT22;4872;48.316;10.650;2022-10-16T15:57:34;22.30;93.70
9668;DHT22;4872;48.316;10.650;2022-10-16T16:00:05;22.10;93.60
9668;DHT22;4872;48.316;10.650;2022-10-16T16:02:33;21.90;93.60
9668;DHT22;4872;48.316;10.650;2022-10-16T16:05:00;21.80;93.70
9668;DHT22;4872;48.316;10.650;2022-10-16T16:07:27;21.60;93.70
9668;DHT22;4872;48.316;10.650;2022-10-16T16:09:53;21.50;94.30
9668;DHT22;4872;48.316;10.650;2022-10-16T16:12:20;21.30;94.20
9668;DHT22;4872;48.316;10.650;2022-10-16T16:14:48;21.20;94.60
9668;DHT22;4872;48.316;10.650;2022-10-16T16:17:16;21.10;94.60
9668;DHT22;4872;48.316;10.650;2022-10-16T16:19:43;20.90;94.80
9668;DHT22;4872;48.316;10.650;2022-10-16T16:22:10;20.80;94.90
9668;DHT22;4872;48.316;10.650;2022-10-16T16:24:37;20.60;95.10
9668;DHT22;4872;48.316;10.650;2022-10-16T16:27:03;20.40;95.30
9668;DHT22;4872;48.316;10.650;2022-10-16T16:29:30;20.40;95.90
9668;DHT22;4872;48.316;10.650;2022-10-16T16:31:59;20.30;96.30
9668;DHT22;4872;48.316;10.650;2022-10-16T16:34:27;20.20;96.40
9668;DHT22;4872;48.316;10.650;2022-10-16T16:36:54;20.20;96.70
9668;DHT22;4872;48.316;10.650;2022-10-16T16:39:21;20.10;96.90
9668;DHT22;4872;48.316;10.650;2022-10-16T16:41:48;20.10;97.20
9668;DHT22;4872;48.316;10.650;2022-10-16T16:44:15;20.00;97.50
9668;DHT22;4872;48.316;10.650;2022-10-16T16:46:43;19.90;97.80
9668;DHT22;4872;48.316;10.650;2022-10-16T16:49:13;19.80;98.00
9668;DHT22;4872;48.316;10.650;2022-10-16T16:51:40;19.80;98.20
9668;DHT22;4872;48.316;10.650;2022-10-16T16:54:08;19.80;98.40
9668;DHT22;4872;48.316;10.650;2022-10-16T16:56:35;19.60;98.40
9668;DHT22;4872;48.316;10.650;2022-10-16T16:59:03;19.60;98.60
9668;DHT22;4872;48.316;10.650;2022-10-16T17:01:30;19.60;98.70
9668;DHT22;4872;48.316;10.650;2022-10-16T17:03:58;19.30;99.10
9668;DHT22;4872;48.316;10.650;2022-10-16T17:06:28;19.40;99.40
9668;DHT22;4872;48.316;10.650;2022-10-16T17:08:56;19.30;99.60
9668;DHT22;4872;48.316;10.650;2022-10-16T17:11:24;19.20;99.90
9668;DHT22;4872;48.316;10.650;2022-10-16T17:13:52;19.00;99.90
9668;DHT22;4872;48.316;10.650;2022-10-16T17:16:21;19.00;99.90
9668;DHT22;4872;48.316;10.650;2022-10-16T17:18:48;18.70;99.90
9668;DHT22;4872;48.316;10.650;2022-10-16T17:21:15;18.60;99.90
9668;DHT22;4872;48.316;10.650;2022-10-16T17:23:43;18.50;99.90
9668;DHT22;4872;48.316;10.650;2022-10-16T17:26:12;18.40;99.90
9668;DHT22;4872;48.316;10.650;2022-10-16T17:28:40;18.20;99.90
9668;DHT22;4872;48.316;10.650;2022-10-16T17:31:08;18.20;99.90
9668;DHT22;4872;48.316;10.650;2022-10-16T17:33:35;18.00;99.90
9668;DHT22;4872;48.316;10.650;2022-10-16T17:36:03;18.00;99.90
9668;DHT22;4872;48.316;10.650;2022-10-16T17:38:29;17.90;99.90
9668;DHT22;4872;48.316;10.650;2022-10-16T17:40:58;18.00;99.90
9668;DHT22;4872;48.316;10.650;2022-10-16T17:43:25;17.90;99.90
9668;DHT22;4872;48.316;10.650;2022-10-16T17:45:52;17.80;99.90
9668;DHT22;4872;48.316;10.650;2022-10-16T17:48:18;17.90;99.90
9668;DHT22;4872;48.316;10.650;2022-10-16T17:50:45;17.80;99.90
9668;DHT22;4872;48.316;10.650;2022-10-16T17:53:12;17.70;99.90
9668;DHT22;4872;48.316;10.650;2022-10-16T17:55:39;17.80;99.90
9668;DHT22;4872;48.316;10.650;2022-10-16T17:58:08;17.70;99.90
9668;DHT22;4872;48.316;10.650;2022-10-16T18:00:35;17.70;99.90
9668;DHT22;4872;48.316;10.650;2022-10-16T18:03:02;17.60;99.90
9668;DHT22;4872;48.316;10.650;2022-10-16T18:05:29;17.60;99.90
9668;DHT22;4872;48.316;10.650;2022-10-16T18:07:55;17.50;99.90
9668;DHT22;4872;48.316;10.650;2022-10-16T18:10:23;17.30;99.90
9668;DHT22;4872;48.316;10.650;2022-10-16T18:12:49;17.30;99.90
9668;DHT22;4872;48.316;10.650;2022-10-16T18:15:17;17.30;99.90
9668;DHT22;4872;48.316;10.650;2022-10-16T18:17:44;17.20;99.90
9668;DHT22;4872;48.316;10.650;2022-10-16T18:20:11;17.20;99.90
9668;DHT22;4872;48.316;10.650;2022-10-16T18:22:38;17.10;99.90
9668;DHT22;4872;48.316;10.650;2022-10-16T18:25:06;17.10;99.90
9668;DHT22;4872;48.316;10.650;2022-10-16T18:27:33;17.00;99.90
9668;DHT22;4872;48.316;10.650;2022-10-16T18:30:00;16.90;99.90
9668;DHT22;4872;48.316;10.650;2022-10-16T18:32:28;16.90;99.90
9668;DHT22;4872;48.316;10.650;2022-10-16T18:34:55;16.70;99.90
9668;DHT22;4872;48.316;10.650;2022-10-16T18:37:22;16.80;99.90
9668;DHT22;4872;48.316;10.650;2022-10-16T18:39:49;16.70;99.90
9668;DHT22;4872;48.316;10.650;2022-10-16T18:42:16;16.60;99.90
9668;DHT22;4872;48.316;10.650;2022-10-16T18:44:43;16.50;99.90
9668;DHT22;4872;48.316;10.650;2022-10-16T18:47:10;16.30;99.90
9668;DHT22;4872;48.316;10.650;2022-10-16T18:49:38;16.40;99.90
9668;DHT22;4872;48.316;10.650;2022-10-16T18:52:05;16.30;99.90
9668;DHT22;4872;48.316;10.650;2022-10-16T18:54:33;16.30;99.90
9668;DHT22;4872;48.316;10.650;2022-10-16T18:57:02;16.30;99.90
9668;DHT22;4872;48.316;10.650;2022-10-16T18:59:28;16.30;99.90
9668;DHT22;4872;48.316;10.650;2022-10-16T19:01:55;16.30;99.90
9668;DHT22;4872;48.316;10.650;2022-10-16T19:04:22;16.30;99.90
9668;DHT22;4872;48.316;10.650;2022-10-16T19:06:52;16.20;99.90
9668;DHT22;4872;48.316;10.650;2022-10-16T19:09:20;16.30;99.90
9668;DHT22;4872;48.316;10.650;2022-10-16T19:11:48;16.10;99.90
9668;DHT22;4872;48.316;10.650;2022-10-16T19:14:15;16.00;99.90
9668;DHT22;4872;48.316;10.650;2022-10-16T19:16:42;15.80;99.90
9668;DHT22;4872;48.316;10.650;2022-10-16T19:19:11;15.90;99.90
9668;DHT22;4872;48.316;10.650;2022-10-16T19:21:38;15.80;99.90
9668;DHT22;4872;48.316;10.650;2022-10-16T19:24:09;15.80;99.90
9668;DHT22;4872;48.316;10.650;2022-10-16T19:26:37;15.70;99.90
9668;DHT22;4872;48.316;10.650;2022-10-16T19:29:04;15.70;99.90
9668;DHT22;4872;48.316;10.650;2022-10-16T19:31:32;15.70;99.90
9668;DHT22;4872;48.316;10.650;2022-10-16T19:34:00;15.60;99.90
9668;DHT22;4872;48.316;10.650;2022-10-16T19:36:29;15.60;99.90
9668;DHT22;4872;48.316;10.650;2022-10-16T19:38:58;15.60;99.90
9668;DHT22;4872;48.316;10.650;2022-10-16T19:41:27;15.50;99.90
9668;DHT22;4872;48.316;10.650;2022-10-16T19:43:58;15.40;99.90
9668;DHT22;4872;48.316;10.650;2022-10-16T19:46:25;15.40;99.90
9668;DHT22;4872;48.316;10.650;2022-10-16T19:48:56;15.30;99.90
9668;DHT22;4872;48.316;10.650;2022-10-16T19:51:24;15.30;99.90
9668;DHT22;4872;48.316;10.650;2022-10-16T19:53:53;15.20;99.90
9668;DHT22;4872;48.316;10.650;2022-10-16T19:56:22;15.20;99.90
9668;DHT22;4872;48.316;10.650;2022-10-16T19:58:51;15.30;99.90
9668;DHT22;4872;48.316;10.650;2022-10-16T20:01:19;15.20;99.90
9668;DHT22;4872;48.316;10.650;2022-10-16T20:03:47;15.10;99.90
9668;DHT22;4872;48.316;10.650;2022-10-16T20:06:15;15.10;99.90
9668;DHT22;4872;48.316;10.650;2022-10-16T20:08:43;15.00;99.90
9668;DHT22;4872;48.316;10.650;2022-10-16T20:11:12;15.00;99.90
9668;DHT22;4872;48.316;10.650;2022-10-16T20:13:39;15.00;99.90
9668;DHT22;4872;48.316;10.650;2022-10-16T20:16:10;14.90;99.90
9668;DHT22;4872;48.316;10.650;2022-10-16T20:18:37;14.90;99.90